createdAt,value
2022-09-14T00:02:16.779Z,11.491954
2022-09-14T00:07:18.344Z,11.95667
2022-09-14T00:12:20.131Z,11.480202
2022-09-14T00:17:21.724Z,11.666282
2022-09-14T00:22:23.197Z,11.211268
2022-09-14T00:27:24.839Z,11.143746
2022-09-14T00:32:26.521Z,11.117706
2022-09-14T00:37:27.965Z,11.085492
2022-09-14T00:42:29.496Z,11.512364
2022-09-14T00:47:31.236Z,11.354808
2022-09-14T00:52:33.313Z,10.907364
2022-09-14T00:57:35.051Z,11.199626
2022-09-14T01:02:36.907Z,10.847456
2022-09-14T01:07:38.420Z,10.999992
2022-09-14T01:12:40.198Z,10.657076
2022-09-14T01:17:41.991Z,10.488054
2022-09-14T01:22:43.923Z,10.601468
2022-09-14T01:27:45.825Z,10.605444
2022-09-14T01:32:47.789Z,10.912494
2022-09-14T01:37:49.411Z,10.830074
2022-09-14T01:42:51.037Z,10.393052
2022-09-14T01:47:52.461Z,10.383894
2022-09-14T01:52:54.170Z,10.490252
2022-09-14T01:57:55.831Z,10.956732
2022-09-14T02:02:57.460Z,10.788592
2022-09-14T02:07:59.158Z,10.817726
2022-09-14T02:13:00.810Z,10.937314
2022-09-14T02:18:02.244Z,10.414182
2022-09-14T02:23:03.829Z,10.334026
2022-09-14T02:28:05.646Z,10.284158
2022-09-14T02:33:07.662Z,10.51469
2022-09-14T02:38:09.420Z,10.533512
2022-09-14T02:43:11.208Z,10.200312
2022-09-14T02:48:13.148Z,10.419202
2022-09-14T02:53:15.081Z,9.786794
2022-09-14T02:58:17.079Z,10.271362
2022-09-14T03:03:19.056Z,10.136766
2022-09-14T03:08:20.813Z,10.191926
2022-09-14T03:13:22.639Z,9.837544
2022-09-14T03:18:24.506Z,9.864032
2022-09-14T03:23:26.445Z,9.858726
2022-09-14T03:28:28.214Z,9.88653
2022-09-14T03:33:30.200Z,9.63586
2022-09-14T03:38:31.779Z,9.826512
2022-09-14T03:43:33.541Z,10.24075
2022-09-14T03:48:35.559Z,10.12264
2022-09-14T03:53:37.479Z,9.37196
2022-09-14T03:58:39.256Z,9.703668
2022-09-14T04:03:41.301Z,9.79529
2022-09-14T04:08:43.263Z,9.833692
2022-09-14T04:13:45.083Z,9.490952
2022-09-14T04:18:46.843Z,9.565096
2022-09-14T04:24:13.255Z,9.297926
2022-09-14T04:29:15.972Z,9.47418
2022-09-14T04:34:17.596Z,8.61257
2022-09-14T04:39:19.256Z,9.591408
2022-09-14T04:44:20.844Z,9.859446
2022-09-14T04:49:22.428Z,9.681876
2022-09-14T04:54:24.115Z,10.162806
2022-09-14T04:59:25.791Z,10.251062
2022-09-14T05:04:28.364Z,11.016044
2022-09-14T05:09:30.174Z,11.156218
2022-09-14T05:14:31.865Z,11.154778
2022-09-14T05:19:33.539Z,11.106674
2022-09-14T05:24:35.151Z,12.00301
2022-09-14T05:29:36.589Z,11.882798
2022-09-14T05:34:39.068Z,12.097564
2022-09-14T05:39:40.750Z,12.668528
2022-09-14T05:44:42.189Z,13.599738
2022-09-14T05:49:43.636Z,13.831438
2022-09-14T05:54:45.094Z,14.138082
2022-09-14T05:59:46.641Z,14.531652
2022-09-14T06:04:48.501Z,14.613844
2022-09-14T06:09:50.206Z,14.681542
2022-09-14T06:14:51.674Z,14.664594
2022-09-14T06:19:53.603Z,15.530508
2022-09-14T06:24:55.188Z,16.05976
2022-09-14T06:29:56.645Z,15.701822
2022-09-14T06:34:58.292Z,16.259422
2022-09-14T06:39:59.981Z,16.820822
2022-09-14T06:45:01.461Z,17.190674
2022-09-14T06:50:03.050Z,16.552742
2022-09-14T06:55:04.643Z,16.382648
2022-09-14T07:00:06.193Z,17.5759
2022-09-14T07:05:07.900Z,17.57457
2022-09-14T07:10:09.454Z,18.623226
2022-09-14T07:15:10.886Z,17.889248
2022-09-14T07:20:12.447Z,18.56276
2022-09-14T07:25:14.000Z,17.781302
2022-09-14T07:30:15.498Z,17.49531
2022-09-14T07:35:17.186Z,19.471012
2022-09-14T07:40:18.828Z,18.452426
2022-09-14T07:45:20.347Z,18.7439
2022-09-14T07:50:21.925Z,19.298882
2022-09-14T07:55:23.484Z,19.848938
2022-09-14T08:00:25.474Z,19.277252
2022-09-14T08:05:27.483Z,19.678016
2022-09-14T08:10:29.364Z,19.383624
2022-09-14T08:15:31.143Z,19.688166
2022-09-14T08:20:32.936Z,20.842706
2022-09-14T08:25:34.772Z,20.602606
2022-09-14T08:30:36.323Z,19.931726
2022-09-14T08:35:56.879Z,21.086782
2022-09-14T08:40:59.613Z,21.4692
2022-09-14T08:46:01.188Z,20.686832
2022-09-14T08:51:02.775Z,21.617936
2022-09-14T08:56:04.335Z,20.83778
2022-09-14T09:01:05.827Z,21.36352
2022-09-14T09:06:07.462Z,22.01619
2022-09-14T09:11:09.011Z,21.964612
2022-09-14T09:16:10.528Z,22.683556
2022-09-14T09:21:12.224Z,22.235122
2022-09-14T09:26:13.959Z,22.245964
2022-09-14T09:31:15.773Z,22.027724
2022-09-14T09:36:18.142Z,22.085734
2022-09-14T09:41:19.843Z,22.804746
2022-09-14T09:46:21.556Z,21.784082
2022-09-14T09:51:24.142Z,22.838236
2022-09-14T09:56:25.987Z,22.736274
2022-09-14T10:01:27.723Z,22.958978
2022-09-14T10:06:30.438Z,23.240574
2022-09-14T10:11:32.206Z,23.878956
2022-09-14T10:16:34.168Z,23.461026
2022-09-14T10:21:36.012Z,23.915404
2022-09-14T10:26:37.829Z,23.72011
2022-09-14T10:31:39.744Z,24.09573
2022-09-14T10:36:43.040Z,24.14207
2022-09-14T10:41:44.737Z,23.489264
2022-09-14T10:46:46.284Z,24.262772
2022-09-14T10:51:48.140Z,23.888916
2022-09-14T10:56:49.917Z,24.298772
2022-09-14T11:01:51.879Z,23.524138
2022-09-14T11:06:53.935Z,25.495122
2022-09-14T11:11:55.757Z,24.32256
2022-09-14T11:16:57.634Z,23.771946
2022-09-14T11:21:59.125Z,24.145748
2022-09-14T11:27:00.632Z,24.174298
2022-09-14T11:32:19.937Z,24.123738
2022-09-14T11:37:22.970Z,23.877884
2022-09-14T11:42:24.526Z,24.586896
2022-09-14T11:47:26.012Z,23.590928
2022-09-14T11:52:27.451Z,24.53947
2022-09-14T11:57:28.952Z,25.20111
2022-09-14T12:02:30.511Z,25.636966
2022-09-14T12:07:32.277Z,23.319332
2022-09-14T12:12:33.722Z,23.270536
2022-09-14T12:17:39.915Z,24.307308
2022-09-14T12:22:41.993Z,25.301946
2022-09-14T12:27:43.554Z,23.182266
2022-09-14T12:32:45.009Z,24.04384
2022-09-14T12:37:46.619Z,23.453956
2022-09-14T12:42:48.150Z,24.566446
2022-09-14T12:47:49.624Z,24.739866
2022-09-14T12:52:51.083Z,23.845656
2022-09-14T12:57:52.583Z,23.08584
2022-09-14T13:02:54.331Z,22.804882
2022-09-14T13:07:56.025Z,22.888742
2022-09-14T13:12:57.488Z,23.902798
2022-09-14T13:17:58.963Z,24.299844
2022-09-14T13:23:00.411Z,22.765408
2022-09-14T13:28:01.992Z,22.427362
2022-09-14T13:33:03.475Z,23.21448
2022-09-14T13:38:05.320Z,23.257102
2022-09-14T13:43:06.946Z,23.058674
2022-09-14T13:48:08.374Z,22.106238
2022-09-14T13:53:09.802Z,21.898786
2022-09-14T13:58:11.422Z,22.01752
2022-09-14T14:03:12.906Z,22.421758
2022-09-14T14:08:14.548Z,22.3587
2022-09-14T14:13:16.407Z,21.22834
2022-09-14T14:18:18.301Z,22.97594
2022-09-14T14:23:20.098Z,23.540666
2022-09-14T14:28:21.906Z,22.507396
2022-09-14T14:33:23.446Z,22.66654
2022-09-14T14:38:25.494Z,22.346786
2022-09-14T14:43:27.466Z,22.11575
2022-09-14T14:48:29.327Z,22.366258
2022-09-14T14:53:31.173Z,21.571542
2022-09-14T14:58:36.252Z,21.12418
2022-09-14T15:03:38.102Z,21.287476
2022-09-14T15:08:39.838Z,21.164346
2022-09-14T15:13:41.377Z,21.064596
2022-09-14T15:18:42.870Z,20.905248
2022-09-14T15:23:44.689Z,21.607474
2022-09-14T15:28:46.768Z,21.281994
2022-09-14T15:33:48.655Z,20.696928
2022-09-14T15:38:50.774Z,21.003492
2022-09-14T15:43:52.522Z,20.1466
2022-09-14T15:48:54.438Z,20.426866
2022-09-14T15:53:56.538Z,19.999954
2022-09-14T15:58:58.391Z,20.394272
2022-09-14T16:04:00.331Z,20.032792
2022-09-14T16:09:02.018Z,19.815394
2022-09-14T16:14:03.695Z,19.571508
2022-09-14T16:19:05.139Z,19.19156
2022-09-14T16:24:06.638Z,18.80845
2022-09-14T16:29:08.185Z,19.115462
2022-09-14T16:34:09.681Z,18.665006
2022-09-14T16:39:11.382Z,18.795288
2022-09-14T16:44:13.013Z,18.702594
2022-09-14T16:49:14.461Z,18.189746
2022-09-14T16:54:15.919Z,18.6432
2022-09-14T16:59:17.571Z,18.4724
2022-09-14T17:04:19.020Z,18.327884
2022-09-14T17:09:20.864Z,18.692444
2022-09-14T17:14:22.389Z,17.997234
2022-09-14T17:19:24.059Z,18.03968
2022-09-14T17:24:25.739Z,18.25815
2022-09-14T17:29:27.456Z,17.672908
2022-09-14T17:34:29.085Z,17.886534
2022-09-14T17:39:31.043Z,17.552424
2022-09-14T17:44:32.749Z,17.739196
2022-09-14T17:49:34.389Z,17.479854
2022-09-14T17:54:36.283Z,17.19165
2022-09-14T17:59:37.925Z,17.337306
2022-09-14T18:04:39.822Z,17.445252
2022-09-14T18:09:41.657Z,16.265256
2022-09-14T18:14:43.324Z,16.54004
2022-09-14T18:19:45.106Z,16.059054
2022-09-14T18:24:46.864Z,16.208672
2022-09-14T18:29:48.634Z,16.058266
2022-09-14T18:34:50.518Z,16.586828
2022-09-14T18:39:52.618Z,16.611986
2022-09-14T18:44:54.666Z,16.476046
2022-09-14T18:49:56.416Z,17.022872
2022-09-14T18:54:58.271Z,16.494324
2022-09-14T19:00:00.078Z,15.882432
2022-09-14T19:05:01.884Z,16.4937
2022-09-14T19:10:03.719Z,15.573398
2022-09-14T19:15:05.249Z,16.31275
2022-09-14T19:20:06.712Z,16.10116
2022-09-14T19:25:08.162Z,16.146184
2022-09-14T19:30:09.678Z,16.291554
2022-09-14T19:35:11.132Z,15.977758
2022-09-14T19:40:12.972Z,16.020394
2022-09-14T19:45:14.730Z,16.208142
2022-09-14T19:50:16.216Z,16.069298
2022-09-14T19:55:17.750Z,15.798572
2022-09-14T20:00:19.938Z,15.183342
2022-09-14T20:05:21.578Z,15.152092
2022-09-14T20:10:23.547Z,15.831764
2022-09-14T20:15:26.144Z,15.025868
2022-09-14T20:20:27.850Z,14.720458
2022-09-14T20:25:29.892Z,14.71119
2022-09-14T20:30:31.709Z,14.676412
2022-09-14T20:35:33.392Z,14.916946
2022-09-14T20:40:35.336Z,15.014036
2022-09-14T20:45:37.216Z,15.169828
2022-09-14T20:50:38.988Z,15.111316
2022-09-14T20:55:40.620Z,14.991796
2022-09-14T21:00:42.415Z,14.713484
2022-09-14T21:05:43.923Z,15.278398
2022-09-14T21:10:45.819Z,15.577104
2022-09-14T21:15:47.400Z,15.245206
2022-09-14T21:20:48.960Z,15.144846
2022-09-14T21:25:50.460Z,14.482394
2022-09-14T21:30:52.076Z,14.295094
2022-09-14T21:35:53.612Z,14.08961
2022-09-14T21:40:55.290Z,13.956588
2022-09-14T21:45:56.797Z,13.878034
2022-09-14T21:50:58.394Z,14.197556
2022-09-14T21:55:59.890Z,14.013078
2022-09-14T22:01:01.573Z,13.829048
2022-09-14T22:06:03.099Z,14.283628
2022-09-14T22:11:04.712Z,13.889242
2022-09-14T22:16:06.357Z,14.083356
2022-09-14T22:21:08.008Z,13.348428
2022-09-14T22:26:09.495Z,14.015562
2022-09-14T22:31:11.088Z,13.802384
2022-09-14T22:36:12.612Z,13.346312
2022-09-14T22:41:14.547Z,13.062546
2022-09-14T22:46:16.256Z,13.591704
2022-09-14T22:51:18.197Z,13.111356
2022-09-14T22:56:20.068Z,13.303514
2022-09-14T23:01:21.541Z,13.343394
2022-09-14T23:06:23.009Z,13.352052
2022-09-14T23:11:24.781Z,13.741756
2022-09-14T23:16:26.958Z,13.189652
2022-09-14T23:21:28.518Z,13.188932
2022-09-14T23:26:29.864Z,13.505198
2022-09-14T23:31:31.431Z,13.354264
2022-09-14T23:36:32.933Z,12.752726
2022-09-14T23:41:34.540Z,13.070484
2022-09-14T23:46:36.033Z,12.823776
2022-09-14T23:51:37.501Z,12.711678
2022-09-14T23:56:39.107Z,12.975592
